CheckWX is a tool to help pilots better visualize weather data.  It is not intended as a substitute for an official pre-flight weather briefing.

17:31:03 UTC

LEVD TAF
Valladolid Airport
Valladolid, Spain
TAF LEVD 241100Z 2412/2512 06010KT CAVOK TX21/2415Z TN02/2506Z

Mar-24@
12:00 UTC

Mar-24 @ 12:00 UTC

Mar-25@
12:00 UTC

Mar-25 @ 12:00 UTC

TAF LEVD 241100Z 2412/2512 06010KT CAVOK TX21/2415Z TN02/2506Z
Wind
  • 060° at 10 KTS
Cloud Levels
  • No significant clouds